Time;durP1;ratioP1;P1;durP2;ratioP2;P2;SDS_P1;SDS_P2;PMS_P1;PMS_P2;Temp;Humidity;BMP_temperature;BMP_pressure;BME280_temperature;BME280_humidity;BME280_pressure;Samples;Min_cycle;Max_cycle;Signal;HPM_P1;HPM_P2
2022/03/02 00:01:42;;;;;;;36.78;17.80;;;9.20;90.30;;;;;;4951255;28;20035;-70
2022/03/02 00:04:08;;;;;;;37.50;17.23;;;9.20;90.30;;;;;;4951384;28;20081;-70
2022/03/02 00:06:33;;;;;;;40.40;18.17;;;9.20;90.30;;;;;;4938508;28;20051;-70
2022/03/02 00:08:59;;;;;;;40.00;17.23;;;9.10;90.40;;;;;;4947130;28;20431;-70
2022/03/02 00:11:27;;;;;;;36.13;16.90;;;9.20;90.50;;;;;;4932081;29;20550;-70
2022/03/02 00:13:53;;;;;;;36.47;16.73;;;9.10;90.50;;;;;;4944067;28;20055;-70
2022/03/02 00:16:19;;;;;;;39.33;17.48;;;9.10;90.60;;;;;;4943643;28;20401;-70
2022/03/02 00:18:45;;;;;;;39.60;18.65;;;9.10;90.60;;;;;;4950881;29;20089;-70
2022/03/02 00:21:14;;;;;;;39.97;17.83;;;9.10;90.70;;;;;;4950383;28;20039;-70
2022/03/02 00:23:40;;;;;;;40.53;17.02;;;9.10;90.70;;;;;;4944823;28;20115;-70
2022/03/02 00:26:05;;;;;;;36.30;17.52;;;9.10;90.70;;;;;;4931687;29;20470;-70
2022/03/02 00:28:31;;;;;;;33.78;16.42;;;9.00;90.70;;;;;;4946017;28;20078;-70
2022/03/02 00:30:56;;;;;;;32.95;16.42;;;9.00;90.80;;;;;;4947939;28;20035;-70
2022/03/02 00:33:22;;;;;;;38.75;17.73;;;9.00;90.80;;;;;;4953661;28;20118;-70
2022/03/02 00:35:48;;;;;;;37.08;17.27;;;9.00;90.80;;;;;;4940882;28;20115;-71
2022/03/02 00:38:14;;;;;;;34.22;17.42;;;9.00;90.80;;;;;;4935439;29;20035;-70
2022/03/02 00:40:41;;;;;;;38.88;18.80;;;9.00;90.70;;;;;;4953162;29;20843;-70
2022/03/02 00:43:08;;;;;;;35.67;17.90;;;9.00;90.60;;;;;;4954002;28;20486;-70
2022/03/02 00:45:34;;;;;;;46.03;18.02;;;9.00;90.70;;;;;;4951968;28;20035;-70
2022/03/02 00:48:01;;;;;;;42.70;19.92;;;9.00;90.70;;;;;;4934203;29;20035;-70
2022/03/02 00:50:27;;;;;;;45.05;19.63;;;9.00;90.70;;;;;;4949830;29;20046;-70
2022/03/02 00:52:53;;;;;;;34.03;18.17;;;9.00;90.60;;;;;;4954143;28;20031;-70
2022/03/02 00:55:18;;;;;;;46.83;18.20;;;9.00;90.50;;;;;;4952856;28;20047;-71
2022/03/02 00:57:44;;;;;;;38.92;18.55;;;9.00;90.50;;;;;;4953971;29;20035;-70
2022/03/02 01:00:11;;;;;;;36.53;17.70;;;9.00;90.50;;;;;;4941816;28;20036;-70
2022/03/02 01:02:37;;;;;;;36.95;18.58;;;9.00;90.50;;;;;;4943957;28;20074;-71
2022/03/02 01:05:05;;;;;;;38.35;18.45;;;9.00;90.40;;;;;;4947163;28;20661;-70
2022/03/02 01:07:31;;;;;;;37.00;18.20;;;9.00;90.40;;;;;;4943645;29;20114;-70
2022/03/02 01:09:57;;;;;;;35.78;17.88;;;9.00;90.50;;;;;;4950814;28;20122;-70
2022/03/02 01:12:23;;;;;;;38.55;19.10;;;8.90;90.50;;;;;;4972954;28;20071;-70
2022/03/02 01:14:50;;;;;;;44.20;20.23;;;9.00;90.60;;;;;;4962575;28;20032;-70
2022/03/02 01:17:15;;;;;;;46.58;19.85;;;9.00;90.60;;;;;;4951169;28;20537;-70
2022/03/02 01:19:41;;;;;;;41.40;20.17;;;8.90;90.50;;;;;;4953588;28;20031;-70
2022/03/02 01:22:07;;;;;;;39.88;19.98;;;8.90;90.60;;;;;;4949417;28;20032;-70
2022/03/02 01:24:33;;;;;;;37.83;18.77;;;8.90;90.70;;;;;;4946897;29;20058;-70
2022/03/02 01:26:58;;;;;;;41.60;19.65;;;8.90;90.70;;;;;;4953694;28;20028;-70
2022/03/02 01:29:24;;;;;;;38.78;18.52;;;8.90;90.80;;;;;;4953133;28;20110;-70
2022/03/02 01:31:50;;;;;;;41.55;19.08;;;8.80;90.90;;;;;;4951422;28;20383;-70
2022/03/02 01:34:15;;;;;;;37.83;19.50;;;8.80;90.90;;;;;;4953296;28;20031;-70
2022/03/02 01:36:41;;;;;;;47.88;20.08;;;8.80;90.90;;;;;;4952298;29;20035;-71
2022/03/02 01:39:07;;;;;;;40.47;18.08;;;8.80;91.00;;;;;;4952447;28;20070;-70
2022/03/02 01:41:34;;;;;;;47.53;19.25;;;8.80;91.00;;;;;;4936722;28;20067;-70
2022/03/02 01:43:59;;;;;;;45.20;20.83;;;8.80;91.20;;;;;;4935506;29;20047;-70
2022/03/02 01:46:25;;;;;;;38.03;19.05;;;8.80;90.90;;;;;;4952095;28;20027;-71
2022/03/02 01:48:52;;;;;;;40.40;20.05;;;8.80;90.90;;;;;;4943565;28;20113;-70
2022/03/02 01:51:18;;;;;;;40.45;19.38;;;8.80;90.90;;;;;;4952349;28;20036;-70
2022/03/02 01:53:44;;;;;;;46.25;20.33;;;8.80;90.90;;;;;;4953017;28;20192;-70
2022/03/02 01:56:10;;;;;;;45.67;20.95;;;8.80;90.90;;;;;;4943039;28;20071;-70
2022/03/02 01:58:36;;;;;;;42.03;19.40;;;8.80;90.90;;;;;;4950135;28;20051;-70
2022/03/02 02:01:03;;;;;;;45.70;20.27;;;8.70;90.80;;;;;;4952758;29;20043;-70
2022/03/02 02:03:30;;;;;;;44.65;20.75;;;8.80;90.80;;;;;;4952807;28;20039;-70
2022/03/02 02:05:56;;;;;;;42.05;20.75;;;8.80;90.80;;;;;;4952086;28;20032;-70
2022/03/02 02:08:23;;;;;;;49.78;20.85;;;8.70;90.80;;;;;;4952547;28;20027;-70
2022/03/02 02:10:48;;;;;;;43.30;20.50;;;8.70;90.80;;;;;;4953119;28;20032;-70
2022/03/02 02:13:14;;;;;;;48.60;21.55;;;8.70;90.90;;;;;;4951730;28;20473;-70
2022/03/02 02:15:40;;;;;;;43.05;21.00;;;8.70;90.90;;;;;;4940654;28;20039;-70
2022/03/02 02:18:09;;;;;;;40.67;19.42;;;8.70;90.90;;;;;;4940149;29;20495;-70
2022/03/02 02:20:37;;;;;;;47.65;21.23;;;8.70;91.00;;;;;;4950835;28;20081;-70
2022/03/02 02:23:02;;;;;;;51.08;21.35;;;8.60;90.90;;;;;;4948992;28;20066;-70
2022/03/02 02:25:28;;;;;;;47.78;21.25;;;8.70;91.00;;;;;;4952756;28;20412;-70
2022/03/02 02:27:54;;;;;;;49.88;21.70;;;8.60;91.10;;;;;;4939172;28;20031;-70
2022/03/02 02:30:21;;;;;;;47.38;21.35;;;8.60;91.10;;;;;;4952387;28;20120;-70
2022/03/02 02:32:47;;;;;;;43.63;20.30;;;8.60;91.00;;;;;;4939602;29;20024;-70
2022/03/02 02:35:13;;;;;;;44.40;20.85;;;8.50;91.00;;;;;;4951682;28;20410;-70
2022/03/02 02:37:39;;;;;;;51.05;21.52;;;8.60;91.10;;;;;;4952456;28;20027;-70
2022/03/02 02:40:17;;;;;;;50.38;22.23;;;8.50;91.00;;;;;;4951871;28;20047;-70
2022/03/02 02:42:49;;;;;;;41.22;19.40;;;8.50;91.00;;;;;;4945296;28;20051;-70
2022/03/02 02:45:21;;;;;;;45.63;19.90;;;8.50;91.10;;;;;;4947881;28;20110;-70
2022/03/02 02:47:49;;;;;;;48.00;21.42;;;8.50;91.10;;;;;;4950671;28;20458;-70
2022/03/02 02:50:16;;;;;;;46.17;21.92;;;8.40;91.00;;;;;;4939373;28;20109;-70
2022/03/02 02:52:42;;;;;;;47.47;19.95;;;8.40;91.00;;;;;;4951184;28;20067;-70
2022/03/02 02:55:09;;;;;;;45.47;20.30;;;8.40;90.90;;;;;;4951240;28;20125;-70
2022/03/02 02:57:35;;;;;;;52.15;21.63;;;8.40;90.90;;;;;;4952057;28;20082;-70
2022/03/02 03:00:00;;;;;;;46.30;21.33;;;8.40;90.80;;;;;;4951969;28;20506;-70
2022/03/02 03:02:26;;;;;;;42.95;19.50;;;8.40;90.80;;;;;;4951582;28;20472;-70
2022/03/02 03:04:52;;;;;;;45.25;19.98;;;8.30;90.80;;;;;;4951837;28;20031;-70
2022/03/02 03:07:17;;;;;;;42.78;20.27;;;8.40;91.10;;;;;;4952145;28;20221;-70
2022/03/02 03:09:43;;;;;;;43.15;19.05;;;8.30;90.80;;;;;;4951105;28;20088;-70
2022/03/02 03:12:09;;;;;;;44.40;19.55;;;8.30;90.80;;;;;;4951859;28;20049;-70
2022/03/02 03:14:37;;;;;;;36.70;19.42;;;8.30;90.70;;;;;;4951578;28;20138;-70
2022/03/02 03:17:03;;;;;;;41.97;19.98;;;8.30;90.80;;;;;;4951350;28;20046;-70
2022/03/02 03:19:29;;;;;;;42.13;19.38;;;8.30;90.80;;;;;;4951882;28;20051;-70
2022/03/02 03:21:54;;;;;;;43.63;19.20;;;8.20;90.80;;;;;;4950481;28;20031;-70
2022/03/02 03:24:20;;;;;;;44.60;19.42;;;8.20;90.80;;;;;;4950198;28;20035;-70
2022/03/02 03:26:46;;;;;;;38.10;18.38;;;8.20;90.90;;;;;;4940695;28;20141;-70
2022/03/02 03:29:11;;;;;;;42.60;19.30;;;8.10;90.90;;;;;;4946909;28;20116;-70
2022/03/02 03:31:37;;;;;;;41.53;18.55;;;8.10;91.00;;;;;;4935727;28;20111;-70
2022/03/02 03:34:03;;;;;;;40.30;18.55;;;8.10;91.00;;;;;;4934624;28;20530;-70
2022/03/02 03:36:28;;;;;;;42.45;20.05;;;8.10;91.10;;;;;;4939184;28;20070;-70
2022/03/02 03:38:54;;;;;;;41.03;19.30;;;8.00;91.20;;;;;;4945004;28;20035;-70
2022/03/02 03:41:23;;;;;;;38.90;18.05;;;7.90;91.30;;;;;;4951386;28;20023;-70
2022/03/02 03:43:49;;;;;;;37.28;18.40;;;7.90;91.40;;;;;;4935735;28;20067;-70
2022/03/02 03:46:15;;;;;;;37.22;19.38;;;7.90;91.50;;;;;;4939072;28;20035;-69
2022/03/02 03:48:43;;;;;;;41.05;17.08;;;7.90;91.60;;;;;;4951266;28;20031;-69
2022/03/02 03:51:09;;;;;;;39.38;19.08;;;7.80;91.70;;;;;;4950836;29;20031;-70
2022/03/02 03:53:35;;;;;;;38.95;17.15;;;7.80;91.80;;;;;;4947850;28;20036;-70
2022/03/02 03:56:00;;;;;;;38.63;19.38;;;7.80;91.90;;;;;;4946023;28;20079;-70
2022/03/02 03:58:26;;;;;;;36.03;17.75;;;7.70;92.00;;;;;;4946515;28;20035;-70
2022/03/02 04:00:52;;;;;;;34.95;18.02;;;7.70;92.10;;;;;;4932313;29;20123;-70
2022/03/02 04:03:17;;;;;;;46.60;20.38;;;7.70;91.90;;;;;;4941342;28;20040;-70
2022/03/02 04:05:43;;;;;;;39.40;19.25;;;7.60;91.80;;;;;;4944423;28;20050;-70
2022/03/02 04:08:08;;;;;;;45.50;20.67;;;7.70;91.80;;;;;;4948571;28;20032;-70
2022/03/02 04:10:34;;;;;;;38.08;19.27;;;7.60;91.70;;;;;;4946638;29;20035;-70
2022/03/02 04:13:00;;;;;;;40.15;18.58;;;7.60;91.60;;;;;;4953580;28;20032;-70
2022/03/02 04:15:26;;;;;;;42.20;20.08;;;7.60;91.60;;;;;;4954792;29;20038;-70
2022/03/02 04:17:55;;;;;;;38.05;18.60;;;7.60;91.50;;;;;;4956386;28;20501;-70
2022/03/02 04:20:21;;;;;;;38.15;17.23;;;7.60;91.50;;;;;;4953890;28;20039;-69
2022/03/02 04:22:46;;;;;;;40.92;17.55;;;7.60;91.50;;;;;;4953962;28;20387;-69
2022/03/02 04:25:13;;;;;;;45.47;19.33;;;7.60;91.40;;;;;;4954541;28;20031;-70
2022/03/02 04:27:38;;;;;;;35.20;16.27;;;7.60;91.40;;;;;;4952490;28;20427;-70
2022/03/02 04:30:08;;;;;;;37.67;18.40;;;7.60;91.30;;;;;;4945585;28;20119;-70
2022/03/02 04:32:34;;;;;;;39.40;19.60;;;7.60;91.30;;;;;;4950049;29;20023;-70
2022/03/02 04:35:00;;;;;;;35.78;18.00;;;7.60;91.20;;;;;;4944545;28;20063;-70
2022/03/02 04:37:28;;;;;;;41.35;17.92;;;7.60;91.20;;;;;;4948154;29;20063;-70
2022/03/02 04:39:54;;;;;;;41.78;19.73;;;7.50;91.10;;;;;;4944996;29;20031;-70
2022/03/02 04:42:20;;;;;;;39.92;18.48;;;7.50;91.00;;;;;;5003295;28;20396;-70
2022/03/02 04:44:45;;;;;;;41.30;19.48;;;7.50;91.00;;;;;;4954367;28;20050;-70
2022/03/02 04:47:11;;;;;;;44.78;19.90;;;7.50;91.00;;;;;;4952724;28;20050;-70
2022/03/02 04:49:36;;;;;;;37.13;15.90;;;7.50;91.00;;;;;;4944981;28;20051;-70
2022/03/02 04:52:02;;;;;;;40.78;19.55;;;7.50;91.00;;;;;;5003462;28;20114;-69
2022/03/02 04:57:12;;;;;;;41.58;18.75;;;7.50;91.00;;;;;;4953867;28;20043;-70
2022/03/02 04:59:38;;;;;;;41.50;19.33;;;7.50;90.90;;;;;;4953641;28;20054;-70
2022/03/02 05:02:04;;;;;;;38.95;17.65;;;7.40;90.80;;;;;;4942600;28;20024;-71
2022/03/02 05:04:30;;;;;;;40.47;18.40;;;7.40;90.90;;;;;;4951189;28;20118;-70
2022/03/02 05:06:56;;;;;;;35.97;17.05;;;7.40;91.00;;;;;;4975405;28;20110;-69
2022/03/02 05:09:21;;;;;;;33.95;15.77;;;7.30;91.00;;;;;;4974505;28;20562;-69
2022/03/02 05:11:47;;;;;;;42.65;18.65;;;7.30;91.10;;;;;;4950549;28;20045;-69
2022/03/02 05:14:12;;;;;;;37.85;18.02;;;7.30;91.10;;;;;;4963131;28;20046;-70
2022/03/02 05:16:41;;;;;;;37.58;17.15;;;7.20;91.10;;;;;;4963542;28;20039;-69
2022/03/02 05:19:07;;;;;;;43.92;18.45;;;7.20;91.00;;;;;;4964029;28;20043;-70
2022/03/02 05:21:32;;;;;;;38.83;18.23;;;7.30;91.00;;;;;;4968480;28;20038;-70
2022/03/02 05:23:58;;;;;;;29.80;14.55;;;7.30;91.00;;;;;;4963416;28;20073;-69
2022/03/02 05:26:24;;;;;;;32.58;16.20;;;7.20;91.00;;;;;;4963985;28;20032;-70
2022/03/02 05:28:49;;;;;;;36.50;16.77;;;7.20;91.00;;;;;;4960446;28;20035;-70
2022/03/02 05:31:15;;;;;;;38.55;17.52;;;7.20;90.90;;;;;;4952904;29;20039;-70
2022/03/02 05:33:41;;;;;;;38.92;17.77;;;7.20;90.80;;;;;;4953172;28;20039;-69
2022/03/02 05:36:06;;;;;;;38.10;18.27;;;7.20;90.90;;;;;;4940589;28;20050;-70
2022/03/02 05:38:32;;;;;;;44.75;17.27;;;7.20;90.90;;;;;;4952965;28;20073;-70
2022/03/02 05:40:57;;;;;;;38.97;18.08;;;7.10;90.90;;;;;;4944272;28;20027;-71
2022/03/02 05:43:23;;;;;;;40.63;16.65;;;7.10;90.90;;;;;;4952299;28;20035;-70
2022/03/02 05:45:48;;;;;;;37.10;17.15;;;7.10;91.00;;;;;;4952516;28;20023;-70
2022/03/02 05:48:14;;;;;;;38.03;18.73;;;7.00;90.90;;;;;;4975213;28;20031;-71
2022/03/02 05:50:40;;;;;;;37.33;17.10;;;7.00;90.90;;;;;;5006516;28;20433;-70
2022/03/02 05:53:06;;;;;;;35.03;16.75;;;7.00;90.80;;;;;;4950213;28;20036;-69
2022/03/02 05:55:31;;;;;;;36.15;17.88;;;7.00;90.80;;;;;;4963140;28;20079;-70
2022/03/02 05:57:57;;;;;;;35.70;17.80;;;7.00;90.80;;;;;;4951453;28;20118;-68
2022/03/02 06:00:22;;;;;;;39.90;18.55;;;6.90;90.70;;;;;;4968293;28;20035;-68
2022/03/02 06:02:48;;;;;;;36.75;19.30;;;6.90;90.70;;;;;;4951125;29;20051;-69
2022/03/02 06:05:14;;;;;;;37.35;16.52;;;6.90;90.60;;;;;;4959863;28;20390;-69
2022/03/02 06:07:39;;;;;;;40.17;18.75;;;6.90;90.60;;;;;;4966736;28;20056;-71
2022/03/02 06:10:06;;;;;;;35.95;16.15;;;6.90;90.60;;;;;;4950775;28;20371;-71
2022/03/02 06:12:32;;;;;;;41.08;18.30;;;6.90;90.60;;;;;;4950148;28;20517;-71
2022/03/02 06:14:58;;;;;;;42.08;19.00;;;6.90;90.50;;;;;;4952800;28;20090;-71
2022/03/02 06:17:26;;;;;;;40.05;18.55;;;6.90;90.50;;;;;;4950016;28;20054;-69
2022/03/02 06:19:52;;;;;;;40.30;17.80;;;6.90;90.50;;;;;;4951408;28;20043;-68
2022/03/02 06:22:23;;;;;;;38.95;18.17;;;6.80;90.50;;;;;;4950796;28;20030;-69
2022/03/02 06:24:51;;;;;;;42.05;19.15;;;6.80;90.40;;;;;;4950717;28;20024;-69
2022/03/02 06:27:20;;;;;;;36.30;18.00;;;6.80;90.40;;;;;;4949667;28;20505;-69
2022/03/02 06:29:46;;;;;;;39.95;18.13;;;6.80;90.40;;;;;;4949091;28;20019;-69
2022/03/02 06:32:11;;;;;;;37.38;17.80;;;6.80;90.50;;;;;;4962203;28;20044;-71
2022/03/02 06:34:38;;;;;;;41.30;18.65;;;6.70;90.50;;;;;;4962646;28;20018;-70
2022/03/02 06:37:06;;;;;;;44.55;18.45;;;6.70;90.50;;;;;;4949768;28;20133;-68
2022/03/02 06:39:32;;;;;;;43.83;19.45;;;6.70;90.60;;;;;;4950767;28;20043;-67
2022/03/02 06:42:23;;;;;;;40.22;18.77;;;6.70;90.60;;;;;;4951709;28;20023;-70
2022/03/02 06:44:59;;;;;;;40.45;18.05;;;6.70;90.60;;;;;;4951968;28;20032;-69
2022/03/02 06:47:31;;;;;;;43.00;18.15;;;6.60;90.60;;;;;;4966420;28;20031;-71
2022/03/02 06:50:07;;;;;;;45.55;20.08;;;6.70;90.70;;;;;;5005023;28;20037;-73
2022/03/02 06:52:35;;;;;;;39.92;19.45;;;6.60;90.70;;;;;;4962780;28;20035;-70
2022/03/02 06:55:06;;;;;;;43.30;20.52;;;6.60;90.70;;;;;;4950585;28;20040;-69
2022/03/02 06:57:32;;;;;;;47.60;20.38;;;6.60;90.80;;;;;;4951524;28;20457;-69
2022/03/02 07:00:16;;;;;;;44.10;19.98;;;6.60;90.80;;;;;;4952285;28;20039;-69
2022/03/02 07:02:46;;;;;;;41.55;20.13;;;6.50;90.90;;;;;;4944416;28;20118;-69
2022/03/02 07:05:12;;;;;;;43.42;19.70;;;6.50;91.00;;;;;;4947801;29;20047;-69
2022/03/02 07:07:38;;;;;;;44.05;20.67;;;6.50;91.00;;;;;;4942977;28;20031;-69
2022/03/02 07:10:06;;;;;;;40.33;20.23;;;6.50;91.00;;;;;;4947549;28;20505;-69
2022/03/02 07:12:38;;;;;;;44.85;19.85;;;6.50;91.00;;;;;;4950880;28;20035;-69
2022/03/02 07:15:05;;;;;;;46.13;20.73;;;6.50;91.00;;;;;;4951018;28;20035;-69
2022/03/02 07:17:34;;;;;;;43.65;20.45;;;6.50;91.00;;;;;;4951451;28;20534;-69
2022/03/02 07:20:02;;;;;;;41.85;19.20;;;6.50;91.10;;;;;;4938940;28;20035;-69
2022/03/02 07:22:32;;;;;;;42.05;19.65;;;6.50;91.20;;;;;;4950150;28;20042;-69
2022/03/02 07:25:03;;;;;;;53.42;20.45;;;6.50;91.40;;;;;;4951803;28;20517;-68
2022/03/02 07:27:30;;;;;;;40.83;19.42;;;6.40;91.50;;;;;;4939963;28;20054;-68
2022/03/02 07:29:56;;;;;;;46.28;19.30;;;6.40;91.60;;;;;;4950861;28;20043;-70
2022/03/02 07:32:25;;;;;;;42.50;18.85;;;6.40;91.60;;;;;;4951728;28;20040;-69
2022/03/02 07:34:56;;;;;;;45.17;21.42;;;6.40;91.70;;;;;;4951138;28;20036;-68
2022/03/02 07:37:23;;;;;;;39.83;20.23;;;6.40;91.70;;;;;;4932601;29;20031;-69
2022/03/02 07:39:49;;;;;;;41.75;18.65;;;6.40;91.80;;;;;;4948964;29;20054;-69
2022/03/02 07:42:15;;;;;;;41.03;20.20;;;6.40;91.80;;;;;;4954968;28;20113;-69
2022/03/02 07:44:41;;;;;;;46.22;21.35;;;6.40;91.90;;;;;;4955638;28;20130;-69
2022/03/02 07:47:08;;;;;;;42.80;19.17;;;6.40;91.90;;;;;;4954730;28;20419;-68
2022/03/02 07:49:35;;;;;;;44.97;20.65;;;6.40;92.00;;;;;;4940541;28;20123;-69
2022/03/02 07:52:05;;;;;;;51.17;23.55;;;6.40;92.00;;;;;;4954524;29;20089;-68
2022/03/02 07:54:33;;;;;;;48.95;22.25;;;6.40;92.10;;;;;;4954004;29;20110;-68
2022/03/02 07:57:01;;;;;;;42.75;20.80;;;6.40;92.20;;;;;;4954019;28;20043;-68
2022/03/02 07:59:33;;;;;;;44.97;18.02;;;6.40;92.20;;;;;;4941010;28;20082;-69
2022/03/02 08:01:59;;;;;;;47.72;21.13;;;6.30;92.30;;;;;;4946890;29;20035;-68
2022/03/02 08:04:27;;;;;;;42.65;19.92;;;6.40;92.40;;;;;;4953805;28;20380;-69
2022/03/02 08:06:54;;;;;;;46.85;19.83;;;6.40;92.40;;;;;;4954832;28;20053;-68
2022/03/02 08:09:20;;;;;;;45.80;19.10;;;6.40;92.50;;;;;;4948265;28;20066;-69
2022/03/02 08:11:48;;;;;;;40.42;19.58;;;6.40;92.60;;;;;;4947364;29;20043;-69
2022/03/02 08:14:17;;;;;;;51.53;23.17;;;6.40;92.60;;;;;;4954592;28;20034;-69
2022/03/02 08:16:45;;;;;;;53.45;21.38;;;6.40;92.70;;;;;;4954276;29;20053;-69
2022/03/02 08:19:11;;;;;;;42.85;19.08;;;6.40;92.80;;;;;;4954008;28;20039;-69
2022/03/02 08:21:41;;;;;;;49.47;19.75;;;6.40;92.80;;;;;;4942293;28;20487;-69
2022/03/02 08:24:09;;;;;;;51.22;21.15;;;6.40;92.90;;;;;;4947676;29;20035;-68
2022/03/02 08:26:38;;;;;;;40.60;19.33;;;6.40;93.20;;;;;;4941166;28;20126;-68
2022/03/02 08:29:06;;;;;;;45.58;19.85;;;6.40;93.00;;;;;;4954072;28;20081;-69
2022/03/02 08:31:35;;;;;;;40.70;19.75;;;6.40;93.00;;;;;;4954052;29;20081;-69
2022/03/02 08:34:03;;;;;;;35.53;17.95;;;6.40;93.00;;;;;;4941104;28;20089;-69
2022/03/02 08:36:33;;;;;;;47.92;22.35;;;6.40;93.00;;;;;;4943957;29;20078;-68
2022/03/02 08:39:05;;;;;;;44.28;20.10;;;6.40;93.00;;;;;;4940452;28;20043;-69
2022/03/02 08:41:32;;;;;;;43.20;20.50;;;6.40;93.00;;;;;;4954317;28;20032;-69
2022/03/02 08:43:59;;;;;;;43.55;21.58;;;6.50;93.00;;;;;;4936651;28;20024;-68
2022/03/02 08:46:26;;;;;;;49.85;20.48;;;6.50;93.00;;;;;;4945501;28;20391;-68
2022/03/02 08:48:52;;;;;;;47.72;20.52;;;6.50;93.10;;;;;;4954068;28;20077;-68
2022/03/02 08:51:21;;;;;;;43.00;21.10;;;6.60;93.10;;;;;;4941926;28;20059;-68
2022/03/02 08:53:49;;;;;;;40.30;18.25;;;6.60;93.00;;;;;;4952946;28;20051;-68
2022/03/02 08:56:15;;;;;;;50.13;21.05;;;6.60;92.90;;;;;;4940818;28;20122;-69
2022/03/02 08:58:41;;;;;;;42.03;17.92;;;6.60;93.00;;;;;;4947044;28;20047;-68
2022/03/02 09:01:11;;;;;;;48.75;20.75;;;6.60;93.00;;;;;;4947520;28;20040;-69
2022/03/02 09:03:37;;;;;;;51.80;21.73;;;6.60;93.00;;;;;;4946569;29;20047;-68
2022/03/02 09:06:04;;;;;;;41.42;18.50;;;6.70;93.10;;;;;;4948952;29;20126;-69
2022/03/02 09:08:32;;;;;;;45.03;19.88;;;6.70;93.00;;;;;;4952901;28;20533;-68
2022/03/02 09:11:00;;;;;;;46.38;22.02;;;6.70;93.00;;;;;;4953352;28;20127;-69
2022/03/02 09:13:26;;;;;;;44.47;20.15;;;6.70;93.00;;;;;;4953561;28;20493;-68
2022/03/02 09:15:52;;;;;;;40.05;18.70;;;6.80;93.00;;;;;;4939895;28;20031;-69
2022/03/02 09:18:17;;;;;;;39.47;19.88;;;6.70;93.00;;;;;;4953651;28;20051;-68
2022/03/02 09:20:59;;;;;;;41.83;19.00;;;6.70;93.00;;;;;;4953514;28;20065;-69
2022/03/02 09:23:29;;;;;;;41.63;18.33;;;6.80;93.00;;;;;;4945704;29;20166;-69
2022/03/02 09:26:02;;;;;;;41.03;19.35;;;6.80;93.40;;;;;;4946842;28;20490;-68
2022/03/02 09:28:34;;;;;;;39.05;17.67;;;6.80;93.10;;;;;;4946275;29;20037;-68
2022/03/02 09:31:06;;;;;;;45.15;20.25;;;6.80;93.20;;;;;;4951178;29;20129;-71
2022/03/02 09:33:34;;;;;;;45.38;22.52;;;6.80;93.20;;;;;;4952750;29;20134;-72
2022/03/02 09:36:02;;;;;;;40.60;16.80;;;6.80;93.20;;;;;;4946653;28;20047;-71
2022/03/02 09:38:30;;;;;;;50.35;24.58;;;6.90;93.20;;;;;;4955681;28;20517;-71
2022/03/02 09:40:58;;;;;;;30.92;13.65;;;6.90;93.10;;;;;;4972796;28;20025;-71
2022/03/02 09:43:25;;;;;;;44.65;20.00;;;6.90;93.00;;;;;;4969797;28;20041;-71
2022/03/02 09:45:56;;;;;;;32.50;14.43;;;7.00;93.00;;;;;;4962214;28;20043;-71
2022/03/02 09:48:49;;;;;;;55.15;23.95;;;7.10;93.10;;;;;;4952685;28;20035;-71
2022/03/02 09:51:23;;;;;;;43.45;19.52;;;7.10;93.00;;;;;;4949164;29;20714;-72
2022/03/02 09:53:52;;;;;;;41.58;18.60;;;7.10;92.80;;;;;;5008277;28;20048;-71
2022/03/02 09:56:20;;;;;;;42.63;20.63;;;7.20;92.80;;;;;;4933615;28;20816;-71
2022/03/02 09:58:50;;;;;;;48.28;22.95;;;7.20;92.80;;;;;;4946287;28;20051;-71
2022/03/02 10:01:20;;;;;;;44.95;20.77;;;7.20;92.80;;;;;;4949635;28;20027;-70
2022/03/02 10:03:49;;;;;;;40.58;19.42;;;7.30;92.80;;;;;;4951617;28;20046;-72
2022/03/02 10:06:17;;;;;;;40.10;18.50;;;7.40;92.80;;;;;;4952860;28;20394;-71
2022/03/02 10:08:52;;;;;;;34.53;16.58;;;7.30;92.70;;;;;;4952653;28;20383;-71
2022/03/02 10:11:25;;;;;;;39.75;17.92;;;7.40;92.70;;;;;;4957721;28;20458;-72
2022/03/02 10:13:56;;;;;;;37.30;17.33;;;7.40;92.50;;;;;;4950173;28;20554;-71
2022/03/02 10:16:27;;;;;;;45.08;20.70;;;7.50;92.50;;;;;;4968663;28;20045;-71
2022/03/02 10:19:01;;;;;;;40.25;17.88;;;7.50;92.50;;;;;;4983163;28;20126;-72
2022/03/02 10:21:30;;;;;;;47.38;21.45;;;7.60;92.80;;;;;;4977935;28;20034;-70
2022/03/02 10:24:01;;;;;;;38.10;17.02;;;7.60;92.40;;;;;;4962285;28;20062;-70
2022/03/02 10:26:29;;;;;;;41.30;20.60;;;7.60;92.30;;;;;;4950859;28;20136;-71
2022/03/02 10:29:00;;;;;;;35.63;17.67;;;7.60;92.30;;;;;;4951938;28;20031;-70
2022/03/02 10:31:57;;;;;;;39.05;16.80;;;7.60;92.30;;;;;;4947688;28;20036;-71
2022/03/02 10:34:30;;;;;;;45.08;19.60;;;7.70;92.40;;;;;;4953422;28;20039;-71
2022/03/02 10:37:28;;;;;;;39.38;19.30;;;7.70;92.30;;;;;;4976318;28;20031;-71
2022/03/02 10:40:24;;;;;;;41.40;18.30;;;7.70;92.40;;;;;;4973737;28;20048;-71
2022/03/02 10:43:01;;;;;;;44.95;20.70;;;7.80;92.50;;;;;;4949731;29;20465;-70
2022/03/02 10:45:49;;;;;;;36.45;16.85;;;7.80;92.30;;;;;;4950110;28;20039;-71
2022/03/02 10:48:43;;;;;;;40.15;16.75;;;7.90;92.30;;;;;;4948360;29;20055;-70
2022/03/02 10:51:10;;;;;;;37.22;17.73;;;7.90;92.30;;;;;;4962277;28;20043;-71
2022/03/02 10:53:39;;;;;;;38.33;18.15;;;8.00;92.30;;;;;;4950693;28;20031;-71
2022/03/02 10:56:08;;;;;;;43.92;19.02;;;7.90;92.20;;;;;;4951109;28;20054;-72
2022/03/02 10:58:34;;;;;;;37.58;19.02;;;8.00;92.10;;;;;;4950915;28;20108;-72
2022/03/02 11:01:01;;;;;;;37.78;17.38;;;8.10;92.10;;;;;;4938510;28;20027;-68
2022/03/02 11:03:34;;;;;;;38.63;18.63;;;8.10;92.10;;;;;;4951681;28;20039;-68
2022/03/02 11:06:02;;;;;;;36.50;18.40;;;8.10;92.00;;;;;;4949715;28;20030;-69
2022/03/02 11:08:29;;;;;;;37.60;18.65;;;8.20;91.90;;;;;;5002616;28;20074;-69
2022/03/02 11:10:56;;;;;;;40.85;20.10;;;8.20;91.80;;;;;;4936947;28;20126;-69
2022/03/02 11:13:23;;;;;;;33.95;14.85;;;8.30;91.90;;;;;;4966788;28;20403;-71
2022/03/02 11:15:56;;;;;;;34.38;16.42;;;8.30;92.00;;;;;;4990408;28;20520;-69
2022/03/02 11:18:35;;;;;;;37.92;16.13;;;8.40;92.00;;;;;;4951958;28;20117;-69
2022/03/02 11:21:09;;;;;;;35.47;18.35;;;8.40;91.90;;;;;;4950296;28;20039;-68
2022/03/02 11:23:57;;;;;;;36.88;16.88;;;8.40;91.90;;;;;;4941082;28;20081;-69
2022/03/02 11:26:35;;;;;;;34.97;17.02;;;8.40;92.00;;;;;;4951366;28;20072;-69
2022/03/02 11:29:06;;;;;;;30.38;13.57;;;8.40;92.20;;;;;;4950459;28;20141;-69
2022/03/02 11:31:46;;;;;;;35.47;17.17;;;8.40;92.30;;;;;;4940277;29;20047;-69
2022/03/02 11:34:11;;;;;;;42.67;17.33;;;8.40;92.40;;;;;;4935463;29;20031;-69
2022/03/02 11:36:39;;;;;;;41.70;18.77;;;8.40;92.30;;;;;;4941754;29;20172;-69
2022/03/02 11:39:08;;;;;;;34.55;16.05;;;8.40;92.30;;;;;;4949174;28;20039;-69
2022/03/02 11:41:36;;;;;;;39.33;18.58;;;8.40;92.40;;;;;;4949501;28;20846;-76
2022/03/02 11:44:04;;;;;;;22.17;10.50;;;8.50;92.40;;;;;;4951240;28;20027;-69
2022/03/02 11:46:30;;;;;;;41.97;19.95;;;8.50;92.20;;;;;;4950180;28;20082;-69
2022/03/02 11:48:56;;;;;;;37.03;17.67;;;8.50;91.90;;;;;;4947161;28;20050;-68
2022/03/02 11:51:26;;;;;;;37.08;17.13;;;8.60;91.90;;;;;;4940993;28;20031;-72
2022/03/02 11:53:58;;;;;;;37.42;16.10;;;8.60;91.90;;;;;;4947434;28;20042;-71
2022/03/02 11:56:26;;;;;;;36.17;15.38;;;8.70;91.80;;;;;;4945844;28;20055;-71
2022/03/02 11:58:58;;;;;;;31.75;16.77;;;8.70;91.80;;;;;;4951437;28;20043;-71
2022/03/02 12:01:25;;;;;;;39.85;16.92;;;8.80;91.70;;;;;;4950504;28;20038;-71
2022/03/02 12:04:02;;;;;;;33.88;17.88;;;8.80;91.70;;;;;;4938742;28;20038;-71
2022/03/02 12:06:30;;;;;;;26.02;12.50;;;8.80;91.50;;;;;;4948542;28;20027;-71
2022/03/02 12:08:57;;;;;;;33.15;16.58;;;8.90;91.60;;;;;;4946776;28;20531;-71
2022/03/02 12:11:25;;;;;;;28.58;14.32;;;8.90;91.60;;;;;;4942825;28;20040;-71
2022/03/02 12:14:08;;;;;;;37.47;16.73;;;9.00;91.60;;;;;;4939375;28;20169;-71
2022/03/02 12:16:42;;;;;;;40.80;17.02;;;9.00;91.60;;;;;;4950797;29;20043;-71
2022/03/02 12:19:30;;;;;;;29.13;14.05;;;9.00;91.50;;;;;;4950895;29;20138;-71
2022/03/02 12:22:10;;;;;;;34.90;15.35;;;9.00;91.60;;;;;;4950854;28;20092;-74
2022/03/02 12:24:36;;;;;;;28.67;14.77;;;9.10;91.30;;;;;;4943251;28;20031;-69
2022/03/02 12:27:08;;;;;;;37.92;17.70;;;9.10;91.40;;;;;;4965745;28;20090;-69
2022/03/02 12:29:37;;;;;;;34.92;16.42;;;9.10;91.20;;;;;;4956979;28;20031;-71
2022/03/02 12:32:08;;;;;;;38.03;16.48;;;9.20;91.10;;;;;;4943653;28;20148;-69
2022/03/02 12:34:37;;;;;;;31.17;14.68;;;9.20;90.90;;;;;;4952106;28;20066;-69
2022/03/02 12:37:03;;;;;;;33.03;16.40;;;9.20;90.70;;;;;;4954145;28;20042;-69
2022/03/02 12:39:30;;;;;;;37.10;18.42;;;9.30;90.90;;;;;;4953023;28;20090;-69
2022/03/02 12:41:57;;;;;;;34.63;16.30;;;9.30;91.00;;;;;;4942810;28;20419;-69
2022/03/02 12:44:23;;;;;;;35.60;15.02;;;9.40;90.90;;;;;;4953478;29;20035;-69